Terminal Aerodrome Forecast
Issued by NWS

Current Version | Previous Version | Graphics & Text | Print | Product List | Glossary On
Versions: 1 2 3 4 5 6 7 8 9 10 11 12 13 14
000
FTUS41 KILN 190526
TAFLCK
TAF
KLCK 190526Z 1906/2006 VRB03KT P6SM FEW250
     FM191100 VRB03KT P6SM BKN120
     FM191400 24009KT P6SM VCSH BKN080
      TEMPO 1918/1920 4SM -SHRA BR BKN040
     FM192200 29009KT P6SM SCT040
     FM200100 33005KT P6SM SKC=

USA.gov is the U.S. government's official web portal to all federal, state and local government web resources and services.